Ameagle, WV

12:22 AM EDT on July 26, 2014 (GMT -0400)
Joes Creek (KWVCOMFO3) Elev 784 ft | 38.12 °N, 81.59 °W | Change Station

Current weather conditions updated 13 seconds ago

Clear
Clear
62.1 °F
Feels Like 62.1 °F
N
0.0
Wind Variable Wind from West
Gusts 0.0 mph

Today is forecast to be Much Warmer than yesterday. Showers and thunderstorms late tonight.

Today
High -- | Low -- °F
--% Chance of Precip.
Yesterday
High -- | Low -- °F
Precip. -- in
6:24 AM 8:40 PM
Waning Crescent, 1% visible
Pressure 30.04 in
Visibility 10.0 miles
Clouds Clear
Dew Point 61 °F
Humidity 96%
Rainfall -999.00 in
Snow Depth Not available.
UV 0 out of 12
Pollen 4.80 out of 12
Air Quality Not available.
Flu Activity Not available.
METAR KBKW 260351Z AUTO 16006KT 10SM CLR 16/12 A3010 RMK AO2 SLP170 T01560122 TSNO

More Conditions Fewer Conditions

Pressure 30.04 in
Visibility 10.0 miles
Clouds Clear
Dew Point 61 °F
Humidity 96%
Rainfall -999.00 in
Snow Depth Not available.
UV 0 out of 12
Pollen 4.80 out of 12
Air Quality Not available.
Flu Activity Not available.
METAR KBKW 260351Z AUTO 16006KT 10SM CLR 16/12 A3010 RMK AO2 SLP170 T01560122 TSNO

More Conditions Fewer Conditions

10-Day Weather Forecast

Almanac

Astronomy

Jul. 26, 2014 Rise Set
Actual Time 6:24 AM EDT 8:40 PM EDT
Civil Twilight 5:54 AM EDT 9:10 PM EDT
Nautical Twilight 5:17 AM EDT 9:46 PM EDT
Astronomical Twilight 4:37 AM EDT 10:26 PM EDT
Moon 6:14 AM EDT 8:15 PM EDT
Length of Visible Light 15h 15m
Length of Day
14h 16m
Tomorrow will be 1m 41s shorter.
Waning Crescent, 1% of the Moon is Illuminated
Today
Waning Crescent
Jul 26
New
Aug 3
First Quarter
Aug 10
Full
Aug 17
Last Quarter

Yesterday's Extremes

State Highs State Lows

Community

WunderPhotos

Upload Photos

1,737,504 photos uploaded!

Nearby

Snow Depth

Station Depth Elevation
No new snow has been reported.

Earthquake Activity

City Distance Mag. Time & Date
No recent earthquake activity has been reported nearby.
Minimum magnitude displayed is 2.5.

Coastal Water Temperatures

Place Temperature
No Stations Reporting

Nearby Weather Stations

Station Location Temp. Dew Point Humidity Wind Precip. Elev Updated Type
Joes Creek, Comfort, WV 62.1 °F 61 °F 96% West  at  0.0 mph 0.00 in / hr 784 ft 12:22 AM EDT Rapid Fire
F.I.T. - Oyler Ave., Oak Hill, WV 61.3 °F 60 °F 96% SE  at  0.0 mph 0.00 in / hr 1988 ft 12:22 AM EDT Rapid Fire
Glen Ferris, WV 65.5 °F 63 °F 92% WNW  at  0.0 mph 0.00 in / hr 676 ft 12:01 AM EDT Normal
., Gauley Bridge, WV 64.6 °F 61 °F 89% West  at  0.0 mph 0.00 in / hr 804 ft 12:19 AM EDT Normal
Southeast Beckley, Beckley, WV 59.0 °F 56 °F 89% SW  at  0.0 mph 0.00 in / hr 2365 ft 12:22 AM EDT Rapid Fire

Show More Stations Show Fewer Stations